sensor_id;sensor_type;location;lat;lon;timestamp;pressure;altitude;pressure_sealevel;temperature;humidity
74163;BME280;62515;52.758;5.076;2022-08-30T00:02:10;102365.00;;;16.55;89.07
74163;BME280;62515;52.758;5.076;2022-08-30T00:04:37;102368.00;;;16.51;89.48
74163;BME280;62515;52.758;5.076;2022-08-30T00:07:05;102368.69;;;16.42;89.54
74163;BME280;62515;52.758;5.076;2022-08-30T00:09:32;102362.44;;;16.41;89.61
74163;BME280;62515;52.758;5.076;2022-08-30T00:11:59;102352.75;;;16.39;90.69
74163;BME280;62515;52.758;5.076;2022-08-30T00:14:25;102349.22;;;16.38;90.50
74163;BME280;62515;52.758;5.076;2022-08-30T00:16:53;102351.50;;;16.32;90.74
74163;BME280;62515;52.758;5.076;2022-08-30T00:19:21;102345.06;;;16.21;91.46
74163;BME280;62515;52.758;5.076;2022-08-30T00:21:48;102342.59;;;16.18;91.89
74163;BME280;62515;52.758;5.076;2022-08-30T00:24:15;102346.97;;;16.19;91.91
74163;BME280;62515;52.758;5.076;2022-08-30T00:26:42;102336.34;;;16.31;91.28
74163;BME280;62515;52.758;5.076;2022-08-30T00:29:09;102336.25;;;16.32;90.96
74163;BME280;62515;52.758;5.076;2022-08-30T00:31:36;102336.13;;;16.34;90.68
74163;BME280;62515;52.758;5.076;2022-08-30T00:34:03;102332.25;;;16.38;91.02
74163;BME280;62515;52.758;5.076;2022-08-30T00:36:32;102340.97;;;16.29;91.21
74163;BME280;62515;52.758;5.076;2022-08-30T00:38:58;102340.34;;;16.25;91.58
74163;BME280;62515;52.758;5.076;2022-08-30T00:41:25;102345.94;;;16.22;91.23
74163;BME280;62515;52.758;5.076;2022-08-30T00:43:52;102340.66;;;16.20;91.41
74163;BME280;62515;52.758;5.076;2022-08-30T00:46:19;102332.59;;;16.20;90.74
74163;BME280;62515;52.758;5.076;2022-08-30T00:48:48;102337.97;;;16.20;91.23
74163;BME280;62515;52.758;5.076;2022-08-30T00:51:16;102342.69;;;16.17;90.96
74163;BME280;62515;52.758;5.076;2022-08-30T00:53:47;102345.72;;;16.12;91.66
74163;BME280;62515;52.758;5.076;2022-08-30T00:56:15;102352.78;;;16.13;91.33
74163;BME280;62515;52.758;5.076;2022-08-30T00:58:45;102343.56;;;16.17;91.21
74163;BME280;62515;52.758;5.076;2022-08-30T01:01:13;102357.59;;;16.34;90.35
74163;BME280;62515;52.758;5.076;2022-08-30T01:03:41;102357.19;;;16.27;90.66
74163;BME280;62515;52.758;5.076;2022-08-30T01:06:10;102346.66;;;16.24;90.81
74163;BME280;62515;52.758;5.076;2022-08-30T01:08:37;102349.34;;;16.24;91.07
74163;BME280;62515;52.758;5.076;2022-08-30T01:11:07;102343.31;;;16.33;90.54
74163;BME280;62515;52.758;5.076;2022-08-30T01:13:34;102351.75;;;16.52;89.66
74163;BME280;62515;52.758;5.076;2022-08-30T01:16:03;102344.56;;;16.53;89.67
74163;BME280;62515;52.758;5.076;2022-08-30T01:18:30;102349.50;;;16.59;89.16
74163;BME280;62515;52.758;5.076;2022-08-30T01:21:02;102349.94;;;16.65;88.59
74163;BME280;62515;52.758;5.076;2022-08-30T01:23:35;102344.22;;;16.70;88.65
74163;BME280;62515;52.758;5.076;2022-08-30T01:26:04;102343.47;;;16.68;88.79
74163;BME280;62515;52.758;5.076;2022-08-30T01:28:32;102342.84;;;16.64;88.91
74163;BME280;62515;52.758;5.076;2022-08-30T01:31:00;102339.00;;;16.56;89.08
74163;BME280;62515;52.758;5.076;2022-08-30T01:33:27;102348.34;;;16.50;90.19
74163;BME280;62515;52.758;5.076;2022-08-30T01:35:59;102350.38;;;16.59;89.37
74163;BME280;62515;52.758;5.076;2022-08-30T01:38:28;102348.50;;;16.72;88.50
74163;BME280;62515;52.758;5.076;2022-08-30T01:40:58;102353.03;;;16.72;88.54
74163;BME280;62515;52.758;5.076;2022-08-30T01:43:26;102351.75;;;16.78;87.91
74163;BME280;62515;52.758;5.076;2022-08-30T01:45:53;102358.94;;;16.77;88.11
74163;BME280;62515;52.758;5.076;2022-08-30T01:48:20;102355.47;;;16.75;87.97
74163;BME280;62515;52.758;5.076;2022-08-30T01:50:55;102362.50;;;16.78;88.21
74163;BME280;62515;52.758;5.076;2022-08-30T01:53:22;102356.44;;;16.87;88.26
74163;BME280;62515;52.758;5.076;2022-08-30T01:55:49;102356.31;;;16.88;87.92
74163;BME280;62515;52.758;5.076;2022-08-30T01:58:17;102351.78;;;16.89;87.74
74163;BME280;62515;52.758;5.076;2022-08-30T02:00:44;102362.22;;;16.93;86.89
74163;BME280;62515;52.758;5.076;2022-08-30T02:03:11;102357.78;;;16.92;87.15
74163;BME280;62515;52.758;5.076;2022-08-30T02:05:38;102361.00;;;16.97;86.63
74163;BME280;62515;52.758;5.076;2022-08-30T02:08:05;102358.66;;;16.93;87.08
74163;BME280;62515;52.758;5.076;2022-08-30T02:10:32;102367.81;;;16.90;87.26
74163;BME280;62515;52.758;5.076;2022-08-30T02:12:59;102348.00;;;16.91;86.84
74163;BME280;62515;52.758;5.076;2022-08-30T02:15:27;102363.69;;;16.97;86.90
74163;BME280;62515;52.758;5.076;2022-08-30T02:17:54;102361.84;;;16.98;86.81
74163;BME280;62515;52.758;5.076;2022-08-30T02:20:21;102355.59;;;16.97;86.99
74163;BME280;62515;52.758;5.076;2022-08-30T02:22:48;102356.59;;;16.96;86.61
74163;BME280;62515;52.758;5.076;2022-08-30T02:25:15;102356.47;;;16.98;87.10
74163;BME280;62515;52.758;5.076;2022-08-30T02:27:46;102365.06;;;17.03;85.75
74163;BME280;62515;52.758;5.076;2022-08-30T02:30:13;102358.84;;;17.02;86.05
74163;BME280;62515;52.758;5.076;2022-08-30T02:32:42;102360.78;;;17.00;86.29
74163;BME280;62515;52.758;5.076;2022-08-30T02:35:08;102366.16;;;17.00;86.33
74163;BME280;62515;52.758;5.076;2022-08-30T02:37:35;102363.56;;;16.99;86.66
74163;BME280;62515;52.758;5.076;2022-08-30T02:40:03;102356.59;;;16.96;87.10
74163;BME280;62515;52.758;5.076;2022-08-30T02:42:32;102358.09;;;17.00;86.22
74163;BME280;62515;52.758;5.076;2022-08-30T02:44:59;102360.78;;;17.00;86.62
74163;BME280;62515;52.758;5.076;2022-08-30T02:47:26;102359.06;;;16.99;86.73
74163;BME280;62515;52.758;5.076;2022-08-30T02:49:55;102358.31;;;16.97;86.99
74163;BME280;62515;52.758;5.076;2022-08-30T02:52:21;102358.09;;;17.00;86.79
74163;BME280;62515;52.758;5.076;2022-08-30T02:54:53;102348.53;;;16.96;87.31
74163;BME280;62515;52.758;5.076;2022-08-30T02:57:21;102342.38;;;16.94;86.95
74163;BME280;62515;52.758;5.076;2022-08-30T02:59:48;102344.25;;;16.94;87.04
74163;BME280;62515;52.758;5.076;2022-08-30T03:02:15;102338.88;;;16.94;87.02
74163;BME280;62515;52.758;5.076;2022-08-30T03:04:42;102342.63;;;16.91;87.37
74163;BME280;62515;52.758;5.076;2022-08-30T03:07:14;102342.75;;;16.90;87.28
74163;BME280;62515;52.758;5.076;2022-08-30T03:09:42;102345.31;;;16.91;87.41
74163;BME280;62515;52.758;5.076;2022-08-30T03:12:09;102343.38;;;16.93;87.15
74163;BME280;62515;52.758;5.076;2022-08-30T03:14:37;102334.22;;;16.96;86.83
74163;BME280;62515;52.758;5.076;2022-08-30T03:17:06;102333.59;;;16.92;87.31
74163;BME280;62515;52.758;5.076;2022-08-30T03:19:41;102338.34;;;16.89;87.63
74163;BME280;62515;52.758;5.076;2022-08-30T03:22:08;102343.84;;;16.87;87.99
74163;BME280;62515;52.758;5.076;2022-08-30T03:24:38;102337.94;;;16.82;87.91
74163;BME280;62515;52.758;5.076;2022-08-30T03:27:05;102344.50;;;16.78;88.31
74163;BME280;62515;52.758;5.076;2022-08-30T03:29:33;102342.03;;;16.75;88.07
74163;BME280;62515;52.758;5.076;2022-08-30T03:32:01;102333.13;;;16.74;88.54
74163;BME280;62515;52.758;5.076;2022-08-30T03:34:28;102335.41;;;16.68;88.92
74163;BME280;62515;52.758;5.076;2022-08-30T03:36:55;102337.47;;;16.64;89.30
74163;BME280;62515;52.758;5.076;2022-08-30T03:39:22;102341.00;;;16.65;89.14
74163;BME280;62515;52.758;5.076;2022-08-30T03:41:52;102334.78;;;16.64;88.82
74163;BME280;62515;52.758;5.076;2022-08-30T03:44:19;102331.47;;;16.61;88.60
74163;BME280;62515;52.758;5.076;2022-08-30T03:46:47;102329.50;;;16.63;87.96
74163;BME280;62515;52.758;5.076;2022-08-30T03:49:14;102334.16;;;16.61;88.44
74163;BME280;62515;52.758;5.076;2022-08-30T03:51:41;102331.34;;;16.62;88.43
74163;BME280;62515;52.758;5.076;2022-08-30T03:54:08;102341.22;;;16.62;88.50
74163;BME280;62515;52.758;5.076;2022-08-30T03:56:35;102330.94;;;16.56;88.70
74163;BME280;62515;52.758;5.076;2022-08-30T03:59:04;102327.69;;;16.51;89.38
74163;BME280;62515;52.758;5.076;2022-08-30T04:01:31;102328.44;;;16.53;89.34
74163;BME280;62515;52.758;5.076;2022-08-30T04:03:58;102329.84;;;16.46;89.82
74163;BME280;62515;52.758;5.076;2022-08-30T04:06:25;102329.34;;;16.41;89.83
74163;BME280;62515;52.758;5.076;2022-08-30T04:08:53;102335.34;;;16.44;89.03
74163;BME280;62515;52.758;5.076;2022-08-30T04:11:20;102335.34;;;16.44;88.94
74163;BME280;62515;52.758;5.076;2022-08-30T04:13:47;102336.63;;;16.39;89.23
74163;BME280;62515;52.758;5.076;2022-08-30T04:16:18;102337.50;;;16.39;88.60
74163;BME280;62515;52.758;5.076;2022-08-30T04:18:45;102339.44;;;16.37;88.49
74163;BME280;62515;52.758;5.076;2022-08-30T04:21:13;102334.16;;;16.36;88.77
74163;BME280;62515;52.758;5.076;2022-08-30T04:23:40;102329.00;;;16.33;89.28
74163;BME280;62515;52.758;5.076;2022-08-30T04:26:07;102333.75;;;16.29;89.65
74163;BME280;62515;52.758;5.076;2022-08-30T04:28:34;102333.66;;;16.31;89.33
74163;BME280;62515;52.758;5.076;2022-08-30T04:31:07;102337.50;;;16.27;89.91
74163;BME280;62515;52.758;5.076;2022-08-30T04:33:39;102333.91;;;16.15;90.88
74163;BME280;62515;52.758;5.076;2022-08-30T04:36:08;102336.81;;;16.12;90.86
74163;BME280;62515;52.758;5.076;2022-08-30T04:38:36;102341.31;;;16.11;91.05
74163;BME280;62515;52.758;5.076;2022-08-30T04:41:09;102336.25;;;16.07;91.28
74163;BME280;62515;52.758;5.076;2022-08-30T04:43:36;102339.50;;;15.99;91.73
74163;BME280;62515;52.758;5.076;2022-08-30T04:46:05;102348.81;;;16.06;92.09
74163;BME280;62515;52.758;5.076;2022-08-30T04:48:33;102356.25;;;16.03;92.34
74163;BME280;62515;52.758;5.076;2022-08-30T04:51:03;102351.19;;;15.98;92.32
74163;BME280;62515;52.758;5.076;2022-08-30T04:53:31;102354.84;;;15.97;92.32
74163;BME280;62515;52.758;5.076;2022-08-30T04:55:58;102363.97;;;15.95;92.53
74163;BME280;62515;52.758;5.076;2022-08-30T04:58:26;102356.66;;;15.84;93.02
74163;BME280;62515;52.758;5.076;2022-08-30T05:00:52;102363.63;;;15.87;92.66
74163;BME280;62515;52.758;5.076;2022-08-30T05:03:20;102357.09;;;15.91;92.17
74163;BME280;62515;52.758;5.076;2022-08-30T05:05:47;102356.13;;;16.04;90.64
74163;BME280;62515;52.758;5.076;2022-08-30T05:08:17;102358.06;;;16.15;89.12
74163;BME280;62515;52.758;5.076;2022-08-30T05:10:51;102366.78;;;16.18;88.47
74163;BME280;62515;52.758;5.076;2022-08-30T05:13:20;102360.19;;;16.22;88.97
74163;BME280;62515;52.758;5.076;2022-08-30T05:16:04;102368.25;;;16.22;88.18
74163;BME280;62515;52.758;5.076;2022-08-30T05:18:31;102369.66;;;16.28;87.32
74163;BME280;62515;52.758;5.076;2022-08-30T05:21:02;102368.13;;;16.37;87.09
74163;BME280;62515;52.758;5.076;2022-08-30T05:23:31;102374.88;;;16.42;87.45
74163;BME280;62515;52.758;5.076;2022-08-30T05:25:58;102380.47;;;16.52;86.81
74163;BME280;62515;52.758;5.076;2022-08-30T05:28:25;102379.06;;;16.46;87.12
74163;BME280;62515;52.758;5.076;2022-08-30T05:30:52;102388.66;;;16.50;86.86
74163;BME280;62515;52.758;5.076;2022-08-30T05:33:18;102387.69;;;16.51;87.16
74163;BME280;62515;52.758;5.076;2022-08-30T05:35:45;102384.22;;;16.62;86.19
74163;BME280;62515;52.758;5.076;2022-08-30T05:38:12;102382.41;;;16.62;85.64
74163;BME280;62515;52.758;5.076;2022-08-30T05:40:41;102382.19;;;16.65;86.20
74163;BME280;62515;52.758;5.076;2022-08-30T05:43:09;102389.38;;;16.65;86.46
74163;BME280;62515;52.758;5.076;2022-08-30T05:45:37;102382.59;;;16.72;86.08
74163;BME280;62515;52.758;5.076;2022-08-30T05:48:04;102385.50;;;16.69;86.32
74163;BME280;62515;52.758;5.076;2022-08-30T05:50:31;102387.53;;;16.78;86.19
74163;BME280;62515;52.758;5.076;2022-08-30T05:53:02;102379.13;;;16.83;85.88
74163;BME280;62515;52.758;5.076;2022-08-30T05:55:29;102381.50;;;16.87;86.23
74163;BME280;62515;52.758;5.076;2022-08-30T05:57:58;102376.72;;;16.91;85.79
74163;BME280;62515;52.758;5.076;2022-08-30T06:00:26;102393.25;;;16.97;85.85
74163;BME280;62515;52.758;5.076;2022-08-30T06:02:56;102393.41;;;16.96;86.08
74163;BME280;62515;52.758;5.076;2022-08-30T06:05:23;102383.38;;;16.98;85.63
74163;BME280;62515;52.758;5.076;2022-08-30T06:07:50;102387.69;;;17.00;84.66
74163;BME280;62515;52.758;5.076;2022-08-30T06:10:17;102405.28;;;17.04;85.39
74163;BME280;62515;52.758;5.076;2022-08-30T06:12:43;102405.06;;;17.07;85.39
74163;BME280;62515;52.758;5.076;2022-08-30T06:15:12;102396.56;;;17.13;84.19
74163;BME280;62515;52.758;5.076;2022-08-30T06:17:39;102399.75;;;17.18;84.20
74163;BME280;62515;52.758;5.076;2022-08-30T06:20:07;102392.88;;;17.14;83.92
74163;BME280;62515;52.758;5.076;2022-08-30T06:22:34;102402.84;;;17.25;83.44
74163;BME280;62515;52.758;5.076;2022-08-30T06:25:02;102400.03;;;17.26;83.92
74163;BME280;62515;52.758;5.076;2022-08-30T06:27:29;102408.63;;;17.32;82.82
74163;BME280;62515;52.758;5.076;2022-08-30T06:29:57;102407.94;;;17.41;81.93
74163;BME280;62515;52.758;5.076;2022-08-30T06:32:25;102402.44;;;17.42;81.40
74163;BME280;62515;52.758;5.076;2022-08-30T06:34:52;102406.59;;;17.46;81.22
74163;BME280;62515;52.758;5.076;2022-08-30T06:37:19;102403.47;;;17.52;80.51
74163;BME280;62515;52.758;5.076;2022-08-30T06:39:56;102399.91;;;17.52;81.49
74163;BME280;62515;52.758;5.076;2022-08-30T06:42:23;102403.34;;;17.54;79.57
74163;BME280;62515;52.758;5.076;2022-08-30T06:44:56;102402.41;;;17.66;79.66
74163;BME280;62515;52.758;5.076;2022-08-30T06:47:25;102405.88;;;17.68;79.93
74163;BME280;62515;52.758;5.076;2022-08-30T06:49:51;102408.31;;;17.71;78.00
74163;BME280;62515;52.758;5.076;2022-08-30T06:52:18;102407.94;;;17.75;76.65
74163;BME280;62515;52.758;5.076;2022-08-30T06:54:46;102403.66;;;17.73;74.97
74163;BME280;62515;52.758;5.076;2022-08-30T06:57:13;102413.00;;;17.80;76.81
74163;BME280;62515;52.758;5.076;2022-08-30T06:59:40;102414.81;;;17.80;75.72
74163;BME280;62515;52.758;5.076;2022-08-30T07:02:07;102412.03;;;17.81;75.23
74163;BME280;62515;52.758;5.076;2022-08-30T07:04:35;102414.34;;;17.86;72.37
74163;BME280;62515;52.758;5.076;2022-08-30T07:07:04;102413.28;;;17.88;70.96
74163;BME280;62515;52.758;5.076;2022-08-30T07:09:31;102413.38;;;17.87;72.90
74163;BME280;62515;52.758;5.076;2022-08-30T07:12:04;102423.81;;;17.91;70.20
74163;BME280;62515;52.758;5.076;2022-08-30T07:14:32;102425.78;;;18.00;70.88
74163;BME280;62515;52.758;5.076;2022-08-30T07:16:59;102421.13;;;18.02;69.92
74163;BME280;62515;52.758;5.076;2022-08-30T07:19:26;102416.50;;;18.04;69.16
74163;BME280;62515;52.758;5.076;2022-08-30T07:21:54;102420.25;;;18.02;67.97
74163;BME280;62515;52.758;5.076;2022-08-30T07:24:21;102411.06;;;17.93;69.11
74163;BME280;62515;52.758;5.076;2022-08-30T07:26:49;102424.09;;;18.10;68.29
74163;BME280;62515;52.758;5.076;2022-08-30T07:29:17;102425.94;;;18.10;67.18
74163;BME280;62515;52.758;5.076;2022-08-30T07:31:45;102426.91;;;18.09;69.23
74163;BME280;62515;52.758;5.076;2022-08-30T07:34:12;102428.75;;;18.19;69.49
74163;BME280;62515;52.758;5.076;2022-08-30T07:36:39;102423.47;;;18.18;68.56
74163;BME280;62515;52.758;5.076;2022-08-30T07:39:07;102432.19;;;18.21;66.24
74163;BME280;62515;52.758;5.076;2022-08-30T07:41:36;102424.59;;;18.15;67.02
74163;BME280;62515;52.758;5.076;2022-08-30T07:44:04;102428.16;;;18.27;67.56
74163;BME280;62515;52.758;5.076;2022-08-30T07:46:32;102435.50;;;18.25;67.47
74163;BME280;62515;52.758;5.076;2022-08-30T07:48:59;102436.50;;;18.35;66.85
74163;BME280;62515;52.758;5.076;2022-08-30T07:51:30;102428.66;;;18.32;68.52
74163;BME280;62515;52.758;5.076;2022-08-30T07:53:58;102446.34;;;18.58;67.72
74163;BME280;62515;52.758;5.076;2022-08-30T07:56:27;102441.56;;;18.62;68.48
74163;BME280;62515;52.758;5.076;2022-08-30T07:58:54;102439.81;;;18.83;67.96
74163;BME280;62515;52.758;5.076;2022-08-30T08:01:22;102440.19;;;18.90;66.22
74163;BME280;62515;52.758;5.076;2022-08-30T08:03:49;102441.25;;;19.09;64.46
74163;BME280;62515;52.758;5.076;2022-08-30T08:06:19;102441.19;;;19.31;65.35
74163;BME280;62515;52.758;5.076;2022-08-30T08:08:46;102436.78;;;19.30;63.99
74163;BME280;62515;52.758;5.076;2022-08-30T08:11:16;102449.28;;;19.31;66.19
74163;BME280;62515;52.758;5.076;2022-08-30T08:13:45;102452.25;;;19.28;65.84
74163;BME280;62515;52.758;5.076;2022-08-30T08:16:20;102450.06;;;19.22;65.98
74163;BME280;62515;52.758;5.076;2022-08-30T08:18:47;102437.13;;;19.37;66.04
74163;BME280;62515;52.758;5.076;2022-08-30T08:21:15;102449.16;;;19.33;64.17
74163;BME280;62515;52.758;5.076;2022-08-30T08:23:42;102453.84;;;19.31;61.74
74163;BME280;62515;52.758;5.076;2022-08-30T08:26:09;102447.72;;;19.40;61.02
74163;BME280;62515;52.758;5.076;2022-08-30T08:28:36;102449.69;;;19.27;61.50
74163;BME280;62515;52.758;5.076;2022-08-30T08:31:12;102450.66;;;19.26;63.67
74163;BME280;62515;52.758;5.076;2022-08-30T08:33:39;102448.22;;;19.87;64.24
74163;BME280;62515;52.758;5.076;2022-08-30T08:36:06;102449.94;;;20.50;61.17
74163;BME280;62515;52.758;5.076;2022-08-30T08:38:35;102451.06;;;20.77;57.10
74163;BME280;62515;52.758;5.076;2022-08-30T08:41:08;102452.72;;;20.69;57.20
74163;BME280;62515;52.758;5.076;2022-08-30T08:43:38;102453.75;;;20.68;58.45
74163;BME280;62515;52.758;5.076;2022-08-30T08:46:12;102458.06;;;20.50;58.97
74163;BME280;62515;52.758;5.076;2022-08-30T08:48:43;102456.72;;;20.23;60.26
74163;BME280;62515;52.758;5.076;2022-08-30T08:51:27;102460.63;;;20.10;62.29
74163;BME280;62515;52.758;5.076;2022-08-30T08:54:20;102461.72;;;19.87;59.30
74163;BME280;62515;52.758;5.076;2022-08-30T08:56:48;102464.63;;;19.74;61.42
74163;BME280;62515;52.758;5.076;2022-08-30T08:59:16;102466.97;;;19.47;62.21
74163;BME280;62515;52.758;5.076;2022-08-30T09:01:45;102462.31;;;19.26;63.57
74163;BME280;62515;52.758;5.076;2022-08-30T09:04:15;102455.84;;;19.61;64.96
74163;BME280;62515;52.758;5.076;2022-08-30T09:06:54;102460.66;;;19.57;64.97
74163;BME280;62515;52.758;5.076;2022-08-30T09:09:25;102456.63;;;20.04;63.04
74163;BME280;62515;52.758;5.076;2022-08-30T09:11:53;102438.72;;;19.71;63.31
74163;BME280;62515;52.758;5.076;2022-08-30T09:14:22;102459.47;;;19.71;62.47
74163;BME280;62515;52.758;5.076;2022-08-30T09:16:59;102457.59;;;20.03;61.80
74163;BME280;62515;52.758;5.076;2022-08-30T09:19:38;102455.09;;;19.91;61.13
74163;BME280;62515;52.758;5.076;2022-08-30T09:22:19;102469.31;;;20.13;61.33
74163;BME280;62515;52.758;5.076;2022-08-30T09:24:54;102464.00;;;20.02;59.44
74163;BME280;62515;52.758;5.076;2022-08-30T09:27:27;102467.28;;;19.85;59.32
74163;BME280;62515;52.758;5.076;2022-08-30T09:30:00;102462.75;;;19.86;60.51
74163;BME280;62515;52.758;5.076;2022-08-30T09:32:32;102472.88;;;19.72;60.29
74163;BME280;62515;52.758;5.076;2022-08-30T09:34:59;102461.63;;;19.88;59.63
74163;BME280;62515;52.758;5.076;2022-08-30T09:37:31;102464.41;;;20.18;59.38
74163;BME280;62515;52.758;5.076;2022-08-30T09:39:58;102470.34;;;20.12;60.55
74163;BME280;62515;52.758;5.076;2022-08-30T09:42:28;102470.41;;;20.22;58.45
74163;BME280;62515;52.758;5.076;2022-08-30T09:44:56;102468.44;;;20.45;58.58
74163;BME280;62515;52.758;5.076;2022-08-30T09:47:41;102464.88;;;21.14;56.90
74163;BME280;62515;52.758;5.076;2022-08-30T09:50:11;102466.63;;;22.30;53.85
74163;BME280;62515;52.758;5.076;2022-08-30T09:52:51;102467.66;;;22.57;52.12
74163;BME280;62515;52.758;5.076;2022-08-30T09:55:54;102469.75;;;22.82;51.55
74163;BME280;62515;52.758;5.076;2022-08-30T09:58:38;102460.75;;;23.54;49.99
74163;BME280;62515;52.758;5.076;2022-08-30T10:01:12;102461.97;;;23.41;49.25
74163;BME280;62515;52.758;5.076;2022-08-30T10:03:46;102463.41;;;23.63;49.44
74163;BME280;62515;52.758;5.076;2022-08-30T10:06:24;102461.03;;;23.33;49.61
74163;BME280;62515;52.758;5.076;2022-08-30T10:09:05;102461.84;;;23.78;48.74
74163;BME280;62515;52.758;5.076;2022-08-30T10:11:44;102450.56;;;23.91;49.24
74163;BME280;62515;52.758;5.076;2022-08-30T10:14:33;102453.34;;;24.76;46.97
74163;BME280;62515;52.758;5.076;2022-08-30T10:17:08;102448.34;;;26.28;44.12
74163;BME280;62515;52.758;5.076;2022-08-30T10:19:55;102449.38;;;26.90;42.41
74163;BME280;62515;52.758;5.076;2022-08-30T10:22:28;102445.91;;;27.58;40.91
74163;BME280;62515;52.758;5.076;2022-08-30T10:25:01;102453.53;;;27.09;40.75
74163;BME280;62515;52.758;5.076;2022-08-30T10:27:35;102454.78;;;25.46;45.91
74163;BME280;62515;52.758;5.076;2022-08-30T10:30:06;102455.19;;;26.32;43.85
74163;BME280;62515;52.758;5.076;2022-08-30T10:32:38;102449.03;;;27.55;40.50
74163;BME280;62515;52.758;5.076;2022-08-30T10:35:14;102442.69;;;27.54;40.11
74163;BME280;62515;52.758;5.076;2022-08-30T10:37:48;102455.16;;;25.52;43.03
74163;BME280;62515;52.758;5.076;2022-08-30T10:40:22;102452.09;;;25.63;44.25
74163;BME280;62515;52.758;5.076;2022-08-30T10:43:15;102441.88;;;24.98;44.77
74163;BME280;62515;52.758;5.076;2022-08-30T10:45:45;102452.78;;;25.57;43.42
74163;BME280;62515;52.758;5.076;2022-08-30T10:48:18;102445.47;;;25.97;42.47
74163;BME280;62515;52.758;5.076;2022-08-30T10:50:50;102435.47;;;27.08;40.47
74163;BME280;62515;52.758;5.076;2022-08-30T10:53:23;102434.25;;;27.11;40.98
74163;BME280;62515;52.758;5.076;2022-08-30T10:55:59;102445.81;;;25.86;42.65
74163;BME280;62515;52.758;5.076;2022-08-30T10:58:28;102437.31;;;27.38;39.77
74163;BME280;62515;52.758;5.076;2022-08-30T11:01:18;102440.88;;;25.90;42.49
74163;BME280;62515;52.758;5.076;2022-08-30T11:04:21;102443.09;;;26.82;40.83
74163;BME280;62515;52.758;5.076;2022-08-30T11:07:03;102442.44;;;26.64;39.41
74163;BME280;62515;52.758;5.076;2022-08-30T11:09:48;102439.91;;;26.54;40.34
74163;BME280;62515;52.758;5.076;2022-08-30T11:12:32;102451.59;;;26.95;39.43
74163;BME280;62515;52.758;5.076;2022-08-30T11:15:12;102440.75;;;27.63;38.60
74163;BME280;62515;52.758;5.076;2022-08-30T11:17:45;102426.53;;;27.14;38.95
74163;BME280;62515;52.758;5.076;2022-08-30T11:20:27;102444.13;;;26.81;41.01
74163;BME280;62515;52.758;5.076;2022-08-30T11:23:23;102440.69;;;26.24;40.05
74163;BME280;62515;52.758;5.076;2022-08-30T11:25:54;102441.34;;;26.34;39.59
74163;BME280;62515;52.758;5.076;2022-08-30T11:29:05;102432.25;;;27.05;38.36
74163;BME280;62515;52.758;5.076;2022-08-30T11:31:38;102437.66;;;27.35;38.72
74163;BME280;62515;52.758;5.076;2022-08-30T11:34:07;102439.56;;;26.57;40.04
74163;BME280;62515;52.758;5.076;2022-08-30T11:37:03;102439.72;;;26.64;39.42
74163;BME280;62515;52.758;5.076;2022-08-30T11:39:54;102437.31;;;27.46;38.39
74163;BME280;62515;52.758;5.076;2022-08-30T11:42:29;102435.41;;;27.47;37.98
74163;BME280;62515;52.758;5.076;2022-08-30T11:47:45;102431.84;;;27.38;39.11
74163;BME280;62515;52.758;5.076;2022-08-30T11:50:17;102430.31;;;27.36;38.69
74163;BME280;62515;52.758;5.076;2022-08-30T11:52:53;102431.69;;;28.00;36.82
74163;BME280;62515;52.758;5.076;2022-08-30T11:55:34;102439.56;;;27.35;37.89
74163;BME280;62515;52.758;5.076;2022-08-30T11:58:26;102437.16;;;27.09;38.50
74163;BME280;62515;52.758;5.076;2022-08-30T12:01:18;102435.81;;;27.05;42.12
74163;BME280;62515;52.758;5.076;2022-08-30T12:04:10;102425.34;;;27.39;40.73
74163;BME280;62515;52.758;5.076;2022-08-30T12:06:53;102419.94;;;27.99;37.54
74163;BME280;62515;52.758;5.076;2022-08-30T12:13:00;102423.19;;;27.04;40.25
74163;BME280;62515;52.758;5.076;2022-08-30T12:18:41;102428.50;;;28.34;36.15
74163;BME280;62515;52.758;5.076;2022-08-30T12:21:26;102418.69;;;28.02;35.36
74163;BME280;62515;52.758;5.076;2022-08-30T12:23:59;102428.88;;;28.31;34.42
74163;BME280;62515;52.758;5.076;2022-08-30T12:26:33;102422.88;;;27.52;35.70
74163;BME280;62515;52.758;5.076;2022-08-30T12:29:10;102420.22;;;25.79;39.38
74163;BME280;62515;52.758;5.076;2022-08-30T12:31:39;102419.53;;;25.53;41.38
74163;BME280;62515;52.758;5.076;2022-08-30T12:34:07;102425.50;;;26.05;41.21
74163;BME280;62515;52.758;5.076;2022-08-30T12:36:37;102412.59;;;26.62;38.23
74163;BME280;62515;52.758;5.076;2022-08-30T12:39:10;102422.41;;;26.08;39.23
74163;BME280;62515;52.758;5.076;2022-08-30T12:41:38;102426.03;;;25.76;41.17
74163;BME280;62515;52.758;5.076;2022-08-30T12:44:13;102422.31;;;26.65;39.72
74163;BME280;62515;52.758;5.076;2022-08-30T12:46:42;102422.47;;;25.84;39.93
74163;BME280;62515;52.758;5.076;2022-08-30T12:49:13;102412.94;;;26.59;39.55
74163;BME280;62515;52.758;5.076;2022-08-30T12:51:42;102413.72;;;26.05;40.56
74163;BME280;62515;52.758;5.076;2022-08-30T12:54:18;102406.22;;;25.26;41.80
74163;BME280;62515;52.758;5.076;2022-08-30T12:56:54;102412.03;;;26.04;39.70
74163;BME280;62515;52.758;5.076;2022-08-30T12:59:56;102410.91;;;25.00;41.09
74163;BME280;62515;52.758;5.076;2022-08-30T13:02:40;102405.53;;;25.40;40.43
74163;BME280;62515;52.758;5.076;2022-08-30T13:08:16;102407.88;;;24.69;41.76
74163;BME280;62515;52.758;5.076;2022-08-30T13:10:53;102398.22;;;24.74;41.46
74163;BME280;62515;52.758;5.076;2022-08-30T13:13:32;102397.41;;;24.82;43.80
74163;BME280;62515;52.758;5.076;2022-08-30T13:16:20;102396.31;;;24.67;45.56
74163;BME280;62515;52.758;5.076;2022-08-30T13:18:49;102393.66;;;24.49;47.22
74163;BME280;62515;52.758;5.076;2022-08-30T13:21:27;102393.47;;;24.17;47.43
74163;BME280;62515;52.758;5.076;2022-08-30T13:23:57;102402.25;;;23.85;47.35